Terminal Aerodrome Forecast
Issued by NWS Charleston, WV

Current Version | Previous Version | Text Only | Print | Product List | Glossary Off
Versions: 1 2 3 4 5 6 7 8 9 10 11 12 13 14 15 16 17 18 19 20 21 22 23 24 25 26

000
FTUS41 KRLX 202300
TAFCRW
TAF
KCRW 202340Z 2100/2124 00000KT P6SM BKN090
     FM210300 00000KT P6SM -SHRA BKN050
     FM210500 00000KT P6SM BKN040
     FM210700 00000KT P6SM BKN025
     FM211100 00000KT P6SM BKN035
     FM211400 27004KT P6SM BKN025
     FM211700 29006KT P6SM OVC035=

USA.gov is the U.S. government's official web portal to all federal, state and local government web resources and services.